TAF Text Data
IDs:
Format:
Raw Decoded Include METAR

Data at: 0210 UTC 19 Dec 2018

TAF AMD ETSI 181853Z 1818/1824 12010KT 4000 BR SCT004 BKN007
  TEMPO 1818/1824 08007KT 2000 BR OVC003 CANCEL